Time;durP1;ratioP1;P1;durP2;ratioP2;P2;SDS_P1;SDS_P2;PMS_P1;PMS_P2;Temp;Humidity;BMP_temperature;BMP_pressure;BME280_temperature;BME280_humidity;BME280_pressure;Samples;Min_cycle;Max_cycle;Signal;HPM_P1;HPM_P2
2023/04/04 00:00:16;;;;;;;2.40;1.83;;;1.30;60.80;2.00;97064.00;;;;5080699;28;20450;-70
2023/04/04 00:03:05;;;;;;;1.27;1.07;;;1.30;60.10;2.00;97046.00;;;;5089068;28;20841;-71
2023/04/04 00:05:54;;;;;;;1.93;1.37;;;1.30;60.80;1.90;97047.00;;;;5089051;28;20438;-70
2023/04/04 00:08:44;;;;;;;1.70;1.60;;;1.30;61.00;1.90;97048.00;;;;5085654;28;20418;-71
2023/04/04 00:11:33;;;;;;;2.27;1.70;;;1.30;61.30;2.10;97045.00;;;;5088316;28;20473;-70
2023/04/04 00:14:22;;;;;;;1.27;1.23;;;1.30;61.70;2.10;97057.00;;;;5082000;28;20836;-70
2023/04/04 00:17:10;;;;;;;1.37;1.27;;;1.30;61.70;1.90;97053.00;;;;5084022;28;20445;-70
2023/04/04 00:20:00;;;;;;;4.83;1.83;;;1.20;61.60;2.00;97065.00;;;;5086976;28;20421;-70
2023/04/04 00:22:49;;;;;;;2.73;1.27;;;1.20;61.70;1.90;97053.00;;;;5078063;28;20423;-70
2023/04/04 00:25:39;;;;;;;1.40;1.30;;;1.20;62.70;2.00;97065.00;;;;5090814;28;20475;-70
2023/04/04 00:28:28;;;;;;;2.60;1.50;;;1.10;62.90;1.60;97047.00;;;;5090344;28;20479;-68
2023/04/04 00:31:16;;;;;;;4.00;1.60;;;1.00;63.30;1.60;97060.00;;;;5087371;28;20530;-71
2023/04/04 00:34:05;;;;;;;2.07;1.83;;;1.00;62.80;1.70;97052.00;;;;5089772;28;21063;-70
2023/04/04 00:36:54;;;;;;;2.03;1.63;;;1.00;63.20;1.80;97063.00;;;;5092321;28;20422;-70
2023/04/04 00:39:44;;;;;;;5.13;1.87;;;1.00;63.70;1.90;97058.00;;;;5084841;28;20475;-70
2023/04/04 00:42:36;;;;;;;2.40;1.60;;;0.90;63.20;1.90;97049.00;;;;5089514;28;20475;-71
2023/04/04 00:45:24;;;;;;;5.30;2.33;;;0.90;63.80;1.80;97060.00;;;;5087091;28;20422;-70
2023/04/04 00:48:13;;;;;;;2.13;1.80;;;0.90;63.50;1.80;97064.00;;;;5082603;28;20953;-70
2023/04/04 00:51:02;;;;;;;3.03;1.57;;;1.10;63.60;1.40;97062.00;;;;5085704;28;20541;-71
2023/04/04 00:53:52;;;;;;;1.73;1.63;;;0.90;63.20;1.40;97064.00;;;;5075679;28;20432;-70
2023/04/04 00:56:41;;;;;;;2.87;1.83;;;0.80;63.70;1.60;97059.00;;;;5090808;28;20585;-70
2023/04/04 00:59:32;;;;;;;5.57;1.70;;;0.80;63.70;1.60;97053.00;;;;5079163;28;20991;-69
2023/04/04 01:02:21;;;;;;;2.43;1.37;;;0.80;64.20;1.60;97069.00;;;;5089798;28;20802;-68
2023/04/04 01:05:11;;;;;;;2.13;1.93;;;0.80;63.80;1.70;97054.00;;;;5084113;28;20512;-69
2023/04/04 01:08:01;;;;;;;2.63;1.97;;;0.80;64.30;1.50;97060.00;;;;5084595;28;20425;-69
2023/04/04 01:10:50;;;;;;;1.97;1.63;;;0.70;63.70;1.40;97063.00;;;;5080622;28;20448;-70
2023/04/04 01:13:39;;;;;;;3.40;1.60;;;0.70;63.60;1.40;97065.00;;;;5080566;28;20832;-70
2023/04/04 01:16:29;;;;;;;2.07;1.90;;;0.70;64.10;1.30;97067.00;;;;5081001;28;20461;-70
2023/04/04 01:19:28;;;;;;;1.93;1.80;;;0.70;64.90;1.50;97067.00;;;;5088067;28;20506;-70
2023/04/04 01:22:19;;;;;;;3.20;1.70;;;0.60;64.70;1.10;97050.00;;;;5088453;28;20433;-70
2023/04/04 01:25:09;;;;;;;3.90;2.13;;;0.60;65.30;1.10;97062.00;;;;5085281;28;20438;-70
2023/04/04 01:27:59;;;;;;;3.97;1.87;;;0.50;65.00;1.20;97060.00;;;;5085525;28;20421;-70
2023/04/04 01:30:47;;;;;;;5.30;2.43;;;0.50;65.60;1.40;97056.00;;;;5089843;28;20521;-70
2023/04/04 01:33:40;;;;;;;1.30;1.20;;;;;1.40;97050.00;;;;5086748;28;20487;-70
2023/04/04 01:36:36;;;;;;;2.67;1.37;;;0.50;63.30;1.40;97057.00;;;;5089589;28;20554;-70
2023/04/04 01:39:32;;;;;;;4.80;2.37;;;0.60;64.20;1.30;97049.00;;;;5090250;28;20441;-70
2023/04/04 01:42:21;;;;;;;3.90;2.33;;;0.60;64.60;1.10;97048.00;;;;5089722;28;20426;-70
2023/04/04 01:45:11;;;;;;;1.97;1.87;;;0.50;64.80;1.00;97051.00;;;;5087375;28;20797;-69
2023/04/04 01:48:00;;;;;;;2.47;2.27;;;0.50;64.30;1.30;97042.00;;;;5085786;28;20493;-70
2023/04/04 01:50:49;;;;;;;1.57;1.47;;;0.50;64.40;1.30;97043.00;;;;5082779;28;20441;-69
2023/04/04 01:53:38;;;;;;;1.63;1.53;;;0.50;64.70;1.30;97040.00;;;;5086181;28;20433;-69
2023/04/04 01:56:26;;;;;;;4.20;1.73;;;0.50;65.50;0.90;97035.00;;;;5075724;28;20974;-70
2023/04/04 01:59:15;;;;;;;2.30;2.10;;;0.40;63.90;1.30;97041.00;;;;5084875;28;20435;-69
2023/04/04 02:02:06;;;;;;;2.10;2.00;;;0.50;63.70;1.00;97046.00;;;;5085348;28;20446;-70
2023/04/04 02:04:54;;;;;;;2.07;1.97;;;0.50;65.50;1.00;97036.00;;;;5083929;28;20437;-70
2023/04/04 02:07:49;;;;;;;1.73;1.40;;;0.40;65.20;1.10;97034.00;;;;5080615;28;20430;-69
2023/04/04 02:10:38;;;;;;;5.77;2.07;;;0.30;64.80;1.10;97044.00;;;;5083259;28;20470;-69
2023/04/04 02:13:27;;;;;;;2.67;1.90;;;0.30;64.80;0.90;97024.00;;;;5083656;28;20560;-67
2023/04/04 02:16:17;;;;;;;2.30;2.10;;;0.30;63.90;1.10;97028.00;;;;5084413;28;20891;-70
2023/04/04 02:19:07;;;;;;;1.93;1.83;;;0.30;65.60;1.00;97033.00;;;;5081287;28;20418;-70
2023/04/04 02:21:56;;;;;;;1.90;1.80;;;0.30;64.90;0.90;97016.00;;;;5081608;28;20880;-70
2023/04/04 02:24:45;;;;;;;3.77;1.63;;;0.30;64.10;0.90;97036.00;;;;5080914;28;20511;-70
2023/04/04 02:27:34;;;;;;;2.93;2.20;;;0.20;64.40;0.90;97028.00;;;;5081933;28;21006;-69
2023/04/04 02:30:22;;;;;;;2.23;1.60;;;0.20;64.50;0.80;97028.00;;;;5083784;28;20869;-69
2023/04/04 02:33:11;;;;;;;3.70;1.80;;;0.20;64.50;0.80;97027.00;;;;5082756;28;20437;-66
2023/04/04 02:36:01;;;;;;;2.63;2.43;;;;;0.70;97022.00;;;;5080546;28;20554;-70
2023/04/04 02:38:50;;;;;;;4.47;1.77;;;0.20;63.20;0.80;97024.00;;;;5081244;28;20422;-70
2023/04/04 02:41:40;;;;;;;1.40;1.30;;;0.20;64.40;0.60;97017.00;;;;5084928;28;20445;-68
2023/04/04 02:44:29;;;;;;;1.70;1.60;;;0.10;63.40;1.10;97015.00;;;;5079817;28;20937;-70
2023/04/04 02:47:17;;;;;;;3.57;1.50;;;0.20;63.10;0.80;97016.00;;;;5080193;28;20434;-67
2023/04/04 02:50:09;;;;;;;2.37;1.60;;;0.20;63.10;1.00;97010.00;;;;5081280;28;20968;-67
2023/04/04 02:53:01;;;;;;;1.93;1.63;;;0.30;63.00;1.00;97008.00;;;;5080930;28;20517;-69
2023/04/04 02:55:50;;;;;;;1.57;1.23;;;0.30;63.10;1.10;96992.00;;;;5079898;28;20485;-70
2023/04/04 02:58:39;;;;;;;3.33;1.40;;;0.30;62.90;1.20;97005.00;;;;5078851;28;20425;-70
2023/04/04 03:01:28;;;;;;;4.07;1.10;;;0.40;62.80;0.70;97000.00;;;;5081499;28;20454;-68
2023/04/04 03:04:18;;;;;;;1.47;1.37;;;0.30;62.30;0.70;96985.00;;;;5083395;28;20423;-70
2023/04/04 03:07:07;;;;;;;1.70;1.60;;;0.30;62.40;1.10;96991.00;;;;5087431;28;20422;-70
2023/04/04 03:09:57;;;;;;;1.17;1.07;;;0.30;63.20;0.90;96976.00;;;;5081784;28;20437;-70
2023/04/04 03:12:46;;;;;;;1.60;1.50;;;0.30;63.50;0.90;96956.00;;;;5083113;28;20422;-69
2023/04/04 03:15:35;;;;;;;2.33;2.00;;;0.30;63.30;1.00;96977.00;;;;5080858;28;20429;-70
2023/04/04 03:18:23;;;;;;;3.83;1.73;;;0.30;63.10;0.90;96969.00;;;;5084185;28;20819;-70
2023/04/04 03:21:12;;;;;;;2.77;1.67;;;0.30;63.50;0.80;96960.00;;;;5080761;28;20452;-65
2023/04/04 03:24:01;;;;;;;3.40;1.87;;;0.20;63.20;1.10;96961.00;;;;5082165;28;20422;-66
2023/04/04 03:26:51;;;;;;;4.37;1.77;;;0.30;62.80;0.50;96944.00;;;;5084335;28;20432;-70
2023/04/04 03:29:41;;;;;;;2.40;2.20;;;0.20;62.40;1.10;96969.00;;;;5082835;28;20982;-70
2023/04/04 03:32:29;;;;;;;1.43;1.23;;;0.20;62.50;0.70;96953.00;;;;5080121;28;20433;-63
2023/04/04 03:35:18;;;;;;;3.97;2.40;;;0.20;61.90;1.00;96955.00;;;;5082695;28;21239;-70
2023/04/04 03:38:07;;;;;;;1.67;1.57;;;0.30;61.80;0.70;96929.00;;;;5080563;28;20433;-65
2023/04/04 03:41:02;;;;;;;3.07;2.17;;;0.30;61.80;1.10;96932.00;;;;5078259;28;20532;-70
2023/04/04 03:43:52;;;;;;;1.77;1.60;;;0.30;61.40;1.00;96948.00;;;;5079491;28;20971;-69
2023/04/04 03:46:41;;;;;;;2.27;1.73;;;0.30;61.00;1.20;96933.00;;;;5084259;28;20563;-66
2023/04/04 03:49:31;;;;;;;1.83;1.67;;;0.40;61.20;0.80;96928.00;;;;5080852;28;20441;-69
2023/04/04 03:52:20;;;;;;;2.30;1.87;;;0.30;61.00;1.10;96947.00;;;;5083581;28;20476;-69
2023/04/04 03:55:10;;;;;;;1.57;1.47;;;0.30;61.20;0.60;96911.00;;;;5085534;28;20803;-71
2023/04/04 03:57:58;;;;;;;2.40;2.17;;;0.30;61.40;1.00;96927.00;;;;5081822;28;20868;-69
2023/04/04 04:00:49;;;;;;;2.20;1.67;;;0.30;61.40;1.00;96920.00;;;;5082099;28;20607;-68
2023/04/04 04:03:37;;;;;;;4.20;2.17;;;0.30;61.50;1.10;96917.00;;;;5081789;28;20430;-70
2023/04/04 04:06:26;;;;;;;2.60;2.10;;;0.30;61.40;1.00;96917.00;;;;5086688;28;20438;-70
2023/04/04 04:09:15;;;;;;;3.97;1.43;;;0.30;62.60;0.30;96910.00;;;;5086560;28;20449;-69
2023/04/04 04:12:04;;;;;;;2.63;2.10;;;0.20;62.80;0.80;96908.00;;;;5077361;28;20464;-69
2023/04/04 04:14:52;;;;;;;1.60;1.50;;;0.20;62.40;0.60;96911.00;;;;5087168;28;20452;-68
2023/04/04 04:17:42;;;;;;;4.47;3.00;;;0.20;62.40;0.70;96915.00;;;;5086978;28;20507;-68
2023/04/04 04:20:31;;;;;;;2.97;2.13;;;0.20;63.50;0.50;96908.00;;;;5078235;28;20453;-69
2023/04/04 04:23:20;;;;;;;2.33;2.13;;;0.10;63.30;0.70;96913.00;;;;5086127;28;20457;-69
2023/04/04 04:26:08;;;;;;;2.40;2.20;;;0.10;62.80;0.80;96922.00;;;;5083828;28;20425;-70
2023/04/04 04:28:57;;;;;;;1.60;1.33;;;0.10;63.40;0.80;96930.00;;;;5083613;28;20429;-68
2023/04/04 04:31:46;;;;;;;3.10;2.27;;;0.10;63.60;0.80;96921.00;;;;5077917;28;20879;-69
2023/04/04 04:34:36;;;;;;;4.53;2.67;;;0.10;63.10;1.00;96915.00;;;;5086051;28;20413;-69
2023/04/04 04:37:25;;;;;;;2.50;2.30;;;0.20;63.50;0.90;96920.00;;;;5089224;28;20464;-69
2023/04/04 04:40:15;;;;;;;6.53;2.17;;;0.20;63.60;0.40;96924.00;;;;5091093;28;20447;-68
2023/04/04 04:43:03;;;;;;;3.40;2.43;;;0.10;64.90;0.80;96928.00;;;;5086375;28;20851;-70
2023/04/04 04:45:52;;;;;;;3.63;2.30;;;0.10;64.80;1.10;96925.00;;;;5085169;28;20502;-70
2023/04/04 04:48:41;;;;;;;3.13;1.63;;;0.10;64.80;1.10;96928.00;;;;5086433;28;20525;-70
2023/04/04 04:51:31;;;;;;;1.97;1.83;;;0.20;65.40;0.60;96932.00;;;;5086283;28;20876;-69
2023/04/04 04:54:20;;;;;;;2.70;1.83;;;0.10;65.40;0.70;96928.00;;;;5079359;28;20962;-69
2023/04/04 04:57:08;;;;;;;1.57;1.40;;;0.10;65.40;0.50;96917.00;;;;5084030;28;20472;-68
2023/04/04 04:59:57;;;;;;;1.67;1.57;;;0.70;65.40;0.80;96940.00;;;;5083872;28;20444;-70
2023/04/04 05:02:46;;;;;;;1.83;1.73;;;0.20;65.20;1.10;96951.00;;;;5087707;28;20430;-70
2023/04/04 05:05:35;;;;;;;2.20;2.00;;;0.30;65.10;1.30;96955.00;;;;5083971;28;20427;-70
2023/04/04 05:08:25;;;;;;;2.63;1.90;;;0.30;65.10;1.10;96950.00;;;;5088322;28;20418;-70
2023/04/04 05:11:14;;;;;;;3.10;2.10;;;0.30;64.50;1.30;96966.00;;;;5086453;28;20502;-70
2023/04/04 05:14:02;;;;;;;7.63;2.10;;;0.40;64.50;1.30;96966.00;;;;5081944;28;20505;-68
2023/04/04 05:16:51;;;;;;;2.23;2.00;;;0.40;65.00;1.10;96955.00;;;;5084076;28;20531;-68
2023/04/04 05:19:40;;;;;;;0.90;0.90;;;0.40;64.80;1.00;96962.00;;;;5082820;28;20433;-65
2023/04/04 05:22:28;;;;;;;1.70;1.60;;;0.40;64.20;1.20;96972.00;;;;5079245;28;20448;-70
2023/04/04 05:25:19;;;;;;;2.77;2.00;;;0.40;63.80;1.50;96971.00;;;;5072216;28;20483;-69
2023/04/04 05:28:07;;;;;;;2.47;1.77;;;0.50;63.70;1.70;96973.00;;;;5068132;28;20466;-70
2023/04/04 05:30:56;;;;;;;1.80;1.63;;;0.60;63.90;1.50;96980.00;;;;5080790;28;21003;-70
2023/04/04 05:33:46;;;;;;;2.60;2.33;;;0.70;63.70;1.90;96981.00;;;;5081185;28;20496;-70
2023/04/04 05:36:35;;;;;;;6.33;4.77;;;0.80;63.60;1.80;96999.00;;;;5066051;28;20444;-69
2023/04/04 05:39:24;;;;;;;2.77;2.57;;;0.80;62.40;1.90;96992.00;;;;5082198;28;20419;-70
2023/04/04 05:42:14;;;;;;;2.33;1.93;;;0.90;62.00;2.10;96983.00;;;;5075792;28;20443;-70
2023/04/04 05:45:02;;;;;;;1.53;1.43;;;0.90;61.80;1.10;96977.00;;;;5077945;28;20435;-69
2023/04/04 05:47:51;;;;;;;2.90;1.80;;;1.00;59.90;1.80;96986.00;;;;5076920;28;20494;-68
2023/04/04 05:50:40;;;;;;;3.13;1.87;;;1.00;60.30;1.90;96996.00;;;;5084349;28;20450;-70
2023/04/04 05:53:29;;;;;;;1.33;1.33;;;1.00;59.70;1.60;96988.00;;;;5079726;28;20808;-68
2023/04/04 05:56:17;;;;;;;2.90;2.53;;;1.10;59.20;2.40;97007.00;;;;5082011;28;20434;-68
2023/04/04 05:59:07;;;;;;;2.83;1.67;;;1.30;59.80;2.50;97002.00;;;;5082653;28;20492;-70
2023/04/04 06:01:56;;;;;;;2.17;1.60;;;1.30;59.60;2.50;97014.00;;;;5083441;28;20457;-70
2023/04/04 06:04:45;;;;;;;3.07;1.77;;;1.40;59.70;2.40;96998.00;;;;5084756;28;20422;-69
2023/04/04 06:07:33;;;;;;;1.73;1.43;;;1.50;58.90;2.80;97005.00;;;;5078050;28;20542;-70
2023/04/04 06:10:22;;;;;;;3.03;1.43;;;1.60;58.70;2.70;96998.00;;;;5074942;28;21141;-70
2023/04/04 06:13:11;;;;;;;1.23;1.13;;;1.70;58.40;2.30;96988.00;;;;5079288;28;20442;-67
2023/04/04 06:16:01;;;;;;;1.83;1.67;;;1.70;57.80;2.10;96989.00;;;;5082976;28;20842;-70
2023/04/04 06:18:50;;;;;;;1.83;1.43;;;1.70;57.30;2.30;96979.00;;;;5079239;28;20466;-66
2023/04/04 06:21:38;;;;;;;2.40;2.30;;;1.70;57.40;2.80;96975.00;;;;5081897;28;20458;-69
2023/04/04 06:24:27;;;;;;;2.43;1.70;;;1.80;58.00;2.80;96988.00;;;;5081408;28;20441;-67
2023/04/04 06:27:16;;;;;;;1.50;1.40;;;2.00;57.20;3.10;96985.00;;;;5086552;28;20567;-69
2023/04/04 06:30:06;;;;;;;2.50;1.10;;;2.00;57.30;3.10;96993.00;;;;5080870;28;20479;-70
2023/04/04 06:32:57;;;;;;;2.40;1.87;;;2.20;57.90;2.50;96982.00;;;;5080365;28;20517;-69
2023/04/04 06:35:46;;;;;;;1.63;1.00;;;2.30;56.40;2.60;96971.00;;;;5078724;28;20843;-70
2023/04/04 06:38:35;;;;;;;2.00;1.80;;;3.60;57.30;3.40;96996.00;;;;5079831;28;20984;-69
2023/04/04 06:41:24;;;;;;;0.80;0.80;;;2.30;57.30;2.70;96982.00;;;;5084561;28;20968;-68
2023/04/04 06:44:13;;;;;;;1.63;1.30;;;2.30;56.90;3.00;96988.00;;;;5081647;28;20439;-70
2023/04/04 06:47:01;;;;;;;2.87;1.87;;;2.30;57.20;3.30;96996.00;;;;5083847;28;20613;-68
2023/04/04 06:49:52;;;;;;;1.40;1.30;;;2.30;56.90;3.10;96977.00;;;;5087089;28;20426;-71
2023/04/04 06:52:41;;;;;;;1.73;1.60;;;2.40;56.90;3.40;96977.00;;;;5087478;28;20429;-71
2023/04/04 06:55:30;;;;;;;6.53;2.00;;;2.40;56.70;3.30;96980.00;;;;5081351;28;20483;-69
2023/04/04 06:58:18;;;;;;;2.10;1.47;;;2.50;57.30;3.20;96992.00;;;;5098109;28;20468;-69
2023/04/04 07:01:07;;;;;;;2.80;1.87;;;2.50;57.00;3.20;96979.00;;;;5081196;28;20532;-71
2023/04/04 07:03:56;;;;;;;2.03;1.77;;;2.50;56.80;3.60;96990.00;;;;5076323;28;20455;-72
2023/04/04 07:06:46;;;;;;;2.60;2.40;;;2.60;57.60;3.60;96978.00;;;;5082842;28;20433;-68
2023/04/04 07:09:35;;;;;;;2.60;2.40;;;2.70;57.40;4.00;97000.00;;;;5086964;28;20478;-70
2023/04/04 07:12:23;;;;;;;1.83;1.63;;;2.80;57.70;3.50;96988.00;;;;5085223;28;20434;-68
2023/04/04 07:15:12;;;;;;;2.77;2.00;;;2.80;57.00;3.60;96991.00;;;;5087649;28;21273;-72
2023/04/04 07:18:01;;;;;;;3.60;1.73;;;2.90;57.40;3.70;96976.00;;;;5075421;28;20898;-70
2023/04/04 07:20:50;;;;;;;2.20;1.97;;;2.90;57.00;4.50;96998.00;;;;5083021;28;20438;-71
2023/04/04 07:23:40;;;;;;;2.13;1.73;;;3.20;57.60;4.40;97004.00;;;;5087439;28;20426;-65
2023/04/04 07:26:29;;;;;;;1.93;1.60;;;3.30;56.90;4.20;96999.00;;;;5087956;28;20429;-68
2023/04/04 07:29:18;;;;;;;2.73;2.00;;;3.20;57.00;4.00;96993.00;;;;5085773;28;20445;-71
2023/04/04 07:32:07;;;;;;;3.17;1.90;;;3.30;56.80;4.20;97003.00;;;;5068204;28;20928;-71
2023/04/04 07:34:55;;;;;;;2.00;1.87;;;3.40;56.10;4.50;97007.00;;;;5088171;28;20430;-72
2023/04/04 07:37:44;;;;;;;1.73;1.63;;;3.50;56.80;4.10;96998.00;;;;5083779;28;20487;-67
2023/04/04 07:40:34;;;;;;;6.43;1.93;;;3.40;56.40;4.10;96988.00;;;;5073819;28;20465;-69
2023/04/04 07:43:23;;;;;;;9.30;2.40;;;3.60;55.70;3.70;96992.00;;;;5087044;28;21009;-68
2023/04/04 07:46:12;;;;;;;4.70;3.50;;;3.70;56.00;4.90;97000.00;;;;5086477;28;20454;-71
2023/04/04 07:49:01;;;;;;;1.97;1.63;;;3.70;56.70;5.20;96993.00;;;;5083070;28;20968;-69
2023/04/04 07:51:50;;;;;;;1.83;1.73;;;3.90;56.90;5.50;96997.00;;;;5078262;28;21515;-72
2023/04/04 07:54:39;;;;;;;1.80;1.70;;;4.10;56.50;5.40;97001.00;;;;5080239;28;20442;-70
2023/04/04 07:57:29;;;;;;;2.60;1.73;;;4.30;55.60;4.90;96989.00;;;;5082362;28;20430;-64
2023/04/04 08:00:20;;;;;;;1.27;1.20;;;4.40;54.20;5.30;97001.00;;;;5083718;28;20449;-68
2023/04/04 08:03:09;;;;;;;5.43;1.90;;;4.50;54.70;5.60;97008.00;;;;5079013;28;20210;-69
2023/04/04 08:05:57;;;;;;;2.17;1.30;;;4.40;55.40;5.90;97022.00;;;;5083709;28;20823;-72
2023/04/04 08:08:47;;;;;;;1.60;1.50;;;4.60;55.70;5.50;97013.00;;;;5080633;28;20204;-71
2023/04/04 08:11:36;;;;;;;1.73;1.57;;;4.70;54.40;5.20;97014.00;;;;5088863;28;20299;-71
2023/04/04 08:14:26;;;;;;;2.50;2.10;;;4.70;54.50;6.00;97003.00;;;;5090295;28;20246;-66
2023/04/04 08:17:17;;;;;;;1.53;1.33;;;4.80;54.00;5.80;97004.00;;;;5090686;28;20199;-70
2023/04/04 08:20:07;;;;;;;3.73;2.17;;;4.90;54.70;5.70;97005.00;;;;5082860;28;20227;-70
2023/04/04 08:22:56;;;;;;;2.60;1.90;;;5.00;55.20;6.00;97015.00;;;;5083027;28;20672;-72
2023/04/04 08:25:46;;;;;;;1.73;1.63;;;5.00;55.20;6.20;97009.00;;;;5081533;28;20195;-68
2023/04/04 08:28:35;;;;;;;1.70;1.17;;;5.10;53.60;5.80;97008.00;;;;5090613;28;20582;-71
2023/04/04 08:31:25;;;;;;;3.00;1.50;;;5.10;53.40;6.00;97000.00;;;;5087325;28;20245;-69
2023/04/04 08:34:13;;;;;;;1.93;1.73;;;5.10;53.20;5.70;97014.00;;;;5071011;28;20277;-72
2023/04/04 08:37:03;;;;;;;3.53;1.70;;;5.10;52.70;6.30;96991.00;;;;5077551;28;20207;-73
2023/04/04 08:39:52;;;;;;;1.53;1.40;;;5.20;53.50;6.30;97003.00;;;;5079412;28;20239;-70
2023/04/04 08:42:43;;;;;;;1.97;1.47;;;5.30;52.40;6.00;97000.00;;;;5077906;28;20203;-69
2023/04/04 08:45:33;;;;;;;1.60;1.50;;;5.30;52.00;6.60;96989.00;;;;5088588;28;20298;-67
2023/04/04 08:48:25;;;;;;;1.80;1.13;;;5.40;53.10;6.80;96983.00;;;;5090348;28;20195;-65
2023/04/04 08:51:16;;;;;;;2.17;1.50;;;5.60;53.00;6.20;97006.00;;;;5077810;28;20222;-72
2023/04/04 08:54:05;;;;;;;1.70;1.60;;;5.60;51.70;5.90;96978.00;;;;5081569;28;20196;-72
2023/04/04 08:56:54;;;;;;;1.43;1.33;;;5.70;52.10;6.40;96996.00;;;;5088704;28;20575;-66
2023/04/04 08:59:43;;;;;;;1.93;1.47;;;5.60;51.10;6.90;96977.00;;;;5072490;28;20617;-70
2023/04/04 09:02:37;;;;;;;2.43;1.83;;;5.60;51.70;6.20;96973.00;;;;5073124;28;20199;-68
2023/04/04 09:05:29;;;;;;;1.37;1.27;;;5.70;52.10;5.90;96980.00;;;;5085171;28;20199;-71
2023/04/04 09:08:18;;;;;;;4.13;2.37;;;5.60;51.30;7.40;96967.00;;;;5081034;28;20204;-71
2023/04/04 09:11:07;;;;;;;3.03;2.30;;;5.80;51.90;6.90;96966.00;;;;5082879;28;20229;-71
2023/04/04 09:13:57;;;;;;;2.20;1.90;;;6.00;50.50;7.30;96983.00;;;;5084830;28;20195;-71
2023/04/04 09:16:47;;;;;;;2.67;1.43;;;6.10;51.90;6.40;96959.00;;;;5079024;28;20191;-69
2023/04/04 09:19:36;;;;;;;2.33;2.10;;;6.00;51.30;7.00;96968.00;;;;5085136;28;20313;-73
2023/04/04 09:22:27;;;;;;;2.30;1.60;;;6.10;51.60;7.40;96974.00;;;;5075504;28;20207;-69
2023/04/04 09:25:17;;;;;;;3.07;2.77;;;6.20;52.10;7.50;96975.00;;;;5086373;28;20554;-72
2023/04/04 09:28:06;;;;;;;3.63;2.13;;;6.30;51.70;8.20;96972.00;;;;5083531;28;20199;-73
2023/04/04 09:30:54;;;;;;;1.20;1.10;;;6.50;51.50;6.20;96959.00;;;;5079403;28;20230;-70
2023/04/04 09:33:43;;;;;;;1.90;1.37;;;6.40;50.30;6.40;96909.00;;;;5074974;28;20713;-66
2023/04/04 09:36:32;;;;;;;3.00;1.70;;;6.10;51.00;6.40;96954.00;;;;5083859;28;21214;-64
2023/04/04 09:39:23;;;;;;;1.40;1.30;;;6.10;49.60;7.00;96962.00;;;;5083064;28;20254;-67
2023/04/04 09:42:12;;;;;;;3.00;1.70;;;6.30;50.80;7.50;96949.00;;;;5087088;28;20244;-72
2023/04/04 09:45:01;;;;;;;5.97;1.10;;;6.40;51.30;6.60;96948.00;;;;5085090;28;20234;-69
2023/04/04 09:47:50;;;;;;;1.13;1.03;;;6.50;49.10;7.70;96947.00;;;;5080988;28;20203;-65
2023/04/04 09:50:46;;;;;;;2.70;1.40;;;6.70;50.70;8.30;96950.00;;;;5087955;28;20219;-67
2023/04/04 09:53:36;;;;;;;2.33;1.40;;;7.00;50.20;8.30;96942.00;;;;5073607;28;20303;-73
2023/04/04 09:56:27;;;;;;;2.00;0.90;;;7.30;49.40;8.00;96927.00;;;;5078602;28;20191;-70
2023/04/04 09:59:17;;;;;;;4.50;2.57;;;7.40;50.10;7.90;96946.00;;;;5080774;28;20219;-72
2023/04/04 10:02:09;;;;;;;2.30;1.57;;;7.40;49.30;9.50;96933.00;;;;5077610;28;20224;-72
2023/04/04 10:04:58;;;;;;;3.13;1.90;;;7.70;50.80;9.20;96921.00;;;;5080946;28;20252;-73
2023/04/04 10:07:53;;;;;;;3.03;1.47;;;7.90;50.80;9.60;96938.00;;;;5081132;28;20196;-72
2023/04/04 10:10:48;;;;;;;0.87;0.87;;;8.10;49.80;8.60;96920.00;;;;5082389;28;20269;-67
2023/04/04 10:13:43;;;;;;;2.87;1.83;;;8.30;49.40;8.60;96922.00;;;;5080731;28;20204;-72
2023/04/04 10:16:33;;;;;;;2.73;1.63;;;8.00;48.40;9.30;96927.00;;;;5083628;28;20206;-66
2023/04/04 10:19:22;;;;;;;1.57;1.47;;;8.20;49.90;9.50;96944.00;;;;5074259;28;20227;-72
2023/04/04 10:22:11;;;;;;;1.70;1.53;;;8.30;47.90;10.70;96930.00;;;;5077986;28;20259;-72
2023/04/04 10:25:00;;;;;;;1.77;1.67;;;8.60;50.60;11.00;96913.00;;;;5078477;28;20199;-72
2023/04/04 10:27:49;;;;;;;2.27;1.33;;;8.90;48.60;9.10;96902.00;;;;5071944;28;20584;-73
2023/04/04 10:30:45;;;;;;;5.00;1.40;;;8.90;48.00;10.50;96905.00;;;;5078069;28;20227;-73
2023/04/04 10:33:48;;;;;;;1.57;1.47;;;9.00;49.60;9.90;96878.00;;;;5083213;28;20348;-65
2023/04/04 10:36:46;;;;;;;1.93;1.70;;;9.20;48.30;10.50;96901.00;;;;5083571;28;20723;-68
2023/04/04 10:39:41;;;;;;;1.03;0.90;;;9.30;49.20;9.80;96909.00;;;;5075356;28;20263;-68
2023/04/04 10:42:38;;;;;;;1.87;1.17;;;9.30;45.80;10.60;96910.00;;;;5077656;28;20663;-68
2023/04/04 10:45:27;;;;;;;3.23;1.30;;;9.30;47.60;10.80;96869.00;;;;5086938;28;20225;-67
2023/04/04 10:48:18;;;;;;;1.80;1.30;;;9.50;47.10;10.10;96871.00;;;;5081346;28;20254;-73
2023/04/04 10:51:07;;;;;;;2.10;1.67;;;9.40;46.00;9.10;96872.00;;;;5084773;28;20329;-70
2023/04/04 10:53:57;;;;;;;3.83;1.47;;;9.40;44.70;9.00;96859.00;;;;5087289;28;20217;-70
2023/04/04 10:56:46;;;;;;;2.93;1.37;;;9.40;45.50;11.20;96900.00;;;;5083936;28;20200;-73
2023/04/04 10:59:34;;;;;;;1.53;1.43;;;9.30;46.90;10.50;96876.00;;;;5080767;28;20234;-72
2023/04/04 11:02:50;;;;;;;1.37;1.20;;;9.40;47.40;9.90;96853.00;;;;5085255;28;20567;-64
2023/04/04 11:05:40;;;;;;;1.03;0.90;;;9.50;46.30;10.20;96830.00;;;;5084514;28;20647;-68
2023/04/04 11:08:29;;;;;;;0.97;0.87;;;9.60;46.40;8.80;96853.00;;;;5085507;28;20281;-70
2023/04/04 11:11:18;;;;;;;3.10;1.97;;;9.60;43.80;9.80;96850.00;;;;5077070;28;20657;-71
2023/04/04 11:14:11;;;;;;;4.00;2.97;;;9.50;44.80;9.60;96856.00;;;;5084155;28;20203;-73
2023/04/04 11:17:00;;;;;;;7.57;3.47;;;9.30;44.90;11.60;96860.00;;;;5086015;28;20256;-66
2023/04/04 11:19:59;;;;;;;7.43;4.30;;;9.70;46.30;11.70;96862.00;;;;5085274;28;20278;-72
2023/04/04 11:22:51;;;;;;;5.17;2.60;;;10.20;45.50;12.40;96862.00;;;;5080145;28;20196;-67
2023/04/04 11:25:42;;;;;;;3.10;1.77;;;10.50;45.00;12.80;96854.00;;;;5079103;28;20191;-74
2023/04/04 11:28:46;;;;;;;8.67;5.37;;;10.90;44.40;12.20;96837.00;;;;5077202;28;20196;-66
2023/04/04 11:31:39;;;;;;;3.20;1.90;;;11.10;43.00;13.40;96858.00;;;;5078237;28;20226;-69
2023/04/04 11:34:32;;;;;;;2.00;1.60;;;11.40;43.50;12.20;96824.00;;;;5079999;28;20207;-72
2023/04/04 11:37:23;;;;;;;2.40;1.37;;;11.30;43.50;12.20;96843.00;;;;5082342;28;20199;-67
2023/04/04 11:40:14;;;;;;;3.30;1.50;;;11.30;43.90;12.70;96822.00;;;;5082476;28;20219;-69
2023/04/04 11:43:08;;;;;;;1.83;1.27;;;11.40;42.70;11.60;96806.00;;;;5075957;28;20199;-73
2023/04/04 11:46:09;;;;;;;2.07;1.87;;;11.30;43.10;13.70;96824.00;;;;5085758;28;20202;-73
2023/04/04 11:48:58;;;;;;;2.33;1.50;;;11.90;44.20;14.10;96828.00;;;;5085075;28;20203;-69
2023/04/04 11:51:46;;;;;;;1.87;1.70;;;12.00;44.60;13.20;96817.00;;;;5087176;28;20238;-73
2023/04/04 11:54:36;;;;;;;1.97;1.80;;;12.00;42.70;10.90;96820.00;;;;5086796;28;20240;-72
2023/04/04 11:57:27;;;;;;;1.83;1.23;;;11.50;41.60;12.00;96807.00;;;;5085957;28;20198;-67
2023/04/04 12:00:29;;;;;;;1.37;0.97;;;11.40;41.80;13.30;96799.00;;;;5088357;28;20633;-66
2023/04/04 12:03:18;;;;;;;2.27;1.40;;;11.60;42.20;13.90;96811.00;;;;5085164;28;20240;-66
2023/04/04 12:06:07;;;;;;;1.07;1.00;;;12.10;42.50;14.30;96793.00;;;;5087073;28;20205;-67
2023/04/04 12:08:56;;;;;;;1.73;1.35;;;12.20;42.70;13.10;96792.00;;;;5081200;28;20446;-71
2023/04/04 12:11:45;;;;;;;1.50;1.40;;;12.20;42.70;14.50;96800.00;;;;5085545;28;20250;-72
2023/04/04 12:14:36;;;;;;;2.47;1.40;;;12.60;43.60;14.10;96790.00;;;;5083838;28;20402;-72
2023/04/04 12:17:29;;;;;;;1.63;1.23;;;12.80;42.40;13.90;96794.00;;;;5085432;28;20210;-69
2023/04/04 12:20:19;;;;;;;2.80;2.07;;;12.90;43.20;14.40;96799.00;;;;5085871;28;20573;-71
2023/04/04 12:23:08;;;;;;;2.60;2.10;;;12.90;41.80;14.00;96783.00;;;;5084813;28;20207;-69
2023/04/04 12:25:57;;;;;;;3.70;2.93;;;12.90;42.00;15.50;96787.00;;;;5085071;28;20191;-69
2023/04/04 12:28:46;;;;;;;7.07;2.77;;;;;15.20;96778.00;;;;5086851;28;20199;-74
2023/04/04 12:31:38;;;;;;;1.30;1.07;;;13.70;41.70;15.20;96772.00;;;;5089543;28;20239;-74
2023/04/04 12:34:32;;;;;;;1.40;1.30;;;13.90;41.10;16.10;96788.00;;;;5086542;28;20199;-67
2023/04/04 12:37:22;;;;;;;1.20;1.00;;;14.20;40.80;15.60;96808.00;;;;5089850;28;20187;-72
2023/04/04 12:40:11;;;;;;;1.80;1.30;;;14.50;39.60;15.50;96781.00;;;;5088578;28;20226;-68
2023/04/04 12:43:01;;;;;;;2.87;1.60;;;14.30;39.10;15.40;96767.00;;;;5079386;28;20619;-69
2023/04/04 12:45:51;;;;;;;1.90;1.40;;;14.20;40.10;15.10;96774.00;;;;5082680;28;20226;-70
2023/04/04 12:48:42;;;;;;;2.07;1.43;;;14.20;38.90;15.80;96777.00;;;;5087053;28;20203;-68